createdAt,value
2019-05-20T00:00:55.843Z,12.00
2019-05-20T00:03:27.943Z,12.40
2019-05-20T00:05:58.978Z,11.90
2019-05-20T00:08:29.153Z,12.80
2019-05-20T00:11:00.481Z,12.40
2019-05-20T00:13:31.538Z,12.40
2019-05-20T00:16:02.958Z,12.80
2019-05-20T00:18:34.329Z,11.70
2019-05-20T00:21:05.505Z,11.83
2019-05-20T00:23:36.615Z,12.97
2019-05-20T00:26:07.807Z,12.80
2019-05-20T00:28:38.754Z,12.43
2019-05-20T00:31:09.925Z,12.00
2019-05-20T00:33:40.959Z,11.00
2019-05-20T00:36:12.218Z,11.67
2019-05-20T00:38:44.809Z,11.53
2019-05-20T00:41:14.876Z,12.53
2019-05-20T00:43:46.255Z,11.53
2019-05-20T00:46:17.282Z,10.80
2019-05-20T00:48:48.552Z,11.07
2019-05-20T00:51:19.537Z,11.07
2019-05-20T00:53:50.806Z,10.67
2019-05-20T00:56:21.811Z,10.60
2019-05-20T00:58:53.167Z,11.00
2019-05-20T01:01:24.535Z,11.57
2019-05-20T01:03:55.989Z,11.97
2019-05-20T01:06:27.069Z,11.70
2019-05-20T01:08:58.365Z,11.93
2019-05-20T01:11:29.428Z,11.07
2019-05-20T01:13:59.650Z,11.53
2019-05-20T01:16:30.969Z,12.20
2019-05-20T01:19:02.096Z,11.40
2019-05-20T01:21:33.410Z,10.73
2019-05-20T01:24:04.494Z,11.10
2019-05-20T01:26:35.780Z,12.03
2019-05-20T01:29:06.726Z,11.60
2019-05-20T01:31:38.003Z,11.93
2019-05-20T01:34:09.068Z,11.13
2019-05-20T01:36:40.334Z,10.43
2019-05-20T01:39:11.413Z,10.93
2019-05-20T01:41:42.670Z,12.57
2019-05-20T01:44:13.652Z,12.30
2019-05-20T01:46:46.276Z,12.03
2019-05-20T01:49:17.349Z,11.70
2019-05-20T01:51:47.506Z,11.50
2019-05-20T01:54:18.874Z,12.40
2019-05-20T01:56:49.787Z,11.80
2019-05-20T01:59:23.005Z,11.80
2019-05-20T02:01:53.980Z,12.63
2019-05-20T02:04:25.240Z,11.90
2019-05-20T02:06:56.186Z,12.33
2019-05-20T02:09:27.330Z,12.30
2019-05-20T02:11:58.440Z,13.43
2019-05-20T02:14:31.251Z,12.47
2019-05-20T02:17:02.892Z,12.90
2019-05-20T02:19:34.732Z,13.03
2019-05-20T02:22:06.624Z,12.70
2019-05-20T02:24:37.631Z,13.47
2019-05-20T02:27:08.845Z,12.03
2019-05-20T02:29:39.786Z,13.57
2019-05-20T02:32:11.054Z,13.37
2019-05-20T02:34:42.062Z,13.17
2019-05-20T02:37:13.274Z,13.60
2019-05-20T02:39:44.488Z,14.63
2019-05-20T02:42:15.741Z,14.37
2019-05-20T02:44:46.719Z,13.63
2019-05-20T02:47:18.000Z,14.43
2019-05-20T02:49:48.953Z,14.50
2019-05-20T02:52:20.205Z,14.50
2019-05-20T02:54:51.263Z,14.77
2019-05-20T02:57:21.463Z,15.07
2019-05-20T02:59:52.739Z,14.83
2019-05-20T03:02:23.753Z,14.43
2019-05-20T03:04:54.981Z,13.70
2019-05-20T03:07:25.979Z,15.17
2019-05-20T03:09:57.053Z,14.93
2019-05-20T03:12:28.131Z,14.87
2019-05-20T03:14:59.348Z,15.40
2019-05-20T03:17:30.490Z,15.70
2019-05-20T03:20:01.684Z,15.60
2019-05-20T03:22:32.784Z,15.43
2019-05-20T03:25:05.892Z,15.20
2019-05-20T03:27:37.024Z,15.53
2019-05-20T03:30:08.110Z,15.77
2019-05-20T03:32:39.288Z,15.47
2019-05-20T03:35:10.701Z,16.00
2019-05-20T03:37:41.906Z,15.63
2019-05-20T03:40:12.957Z,15.10
2019-05-20T03:42:44.199Z,15.43
2019-05-20T03:45:15.314Z,15.27
2019-05-20T03:47:46.504Z,14.87
2019-05-20T03:50:17.563Z,14.87
2019-05-20T03:52:48.897Z,15.77
2019-05-20T03:55:19.885Z,15.23
2019-05-20T03:57:51.065Z,15.73
2019-05-20T04:00:25.049Z,16.27
2019-05-20T04:02:55.121Z,15.53
2019-05-20T04:05:26.308Z,15.30
2019-05-20T04:07:57.313Z,14.90
2019-05-20T04:10:28.482Z,14.70
2019-05-20T04:12:59.473Z,14.50
2019-05-20T04:15:30.623Z,14.40
2019-05-20T04:18:01.541Z,14.30
2019-05-20T04:20:33.182Z,14.93
2019-05-20T04:23:04.528Z,14.37
2019-05-20T04:25:35.836Z,13.17
2019-05-20T04:28:07.282Z,13.97
2019-05-20T04:30:38.491Z,15.17
2019-05-20T04:33:09.549Z,15.57
2019-05-20T04:35:39.710Z,20.53
2019-05-20T04:38:10.974Z,13.90
2019-05-20T04:40:42.029Z,12.47
2019-05-20T04:43:13.192Z,14.87
2019-05-20T04:45:44.194Z,20.13
2019-05-20T04:48:15.520Z,11.70
2019-05-20T04:50:46.595Z,13.53
2019-05-20T04:53:17.901Z,13.50
2019-05-20T04:55:48.879Z,12.30
2019-05-20T04:58:20.339Z,13.37
2019-05-20T05:00:56.350Z,11.50
2019-05-20T05:03:27.609Z,11.47
2019-05-20T05:05:58.783Z,11.93
2019-05-20T05:08:28.919Z,11.30
2019-05-20T05:11:00.194Z,10.47
2019-05-20T05:13:31.491Z,9.97
2019-05-20T05:16:02.745Z,10.03
2019-05-20T05:18:33.853Z,9.57
2019-05-20T05:21:05.187Z,9.00
2019-05-20T05:23:36.217Z,9.00
2019-05-20T05:26:07.612Z,9.67
2019-05-20T05:28:38.774Z,9.00
2019-05-20T05:31:10.225Z,9.10
2019-05-20T05:33:41.619Z,8.70
2019-05-20T05:36:13.271Z,10.83
2019-05-20T05:38:44.335Z,11.10
2019-05-20T05:41:17.587Z,12.10
2019-05-20T05:43:49.204Z,10.47
2019-05-20T05:46:20.257Z,9.47
2019-05-20T05:48:51.509Z,8.70
2019-05-20T05:51:22.477Z,9.13
2019-05-20T05:53:55.036Z,8.87
2019-05-20T05:56:26.233Z,9.03
2019-05-20T05:58:57.539Z,8.17
2019-05-20T06:01:28.683Z,8.27
2019-05-20T06:04:00.123Z,8.57
2019-05-20T06:06:31.276Z,8.53
2019-05-20T06:09:02.558Z,8.47
2019-05-20T06:11:33.656Z,9.27
2019-05-20T06:14:04.284Z,9.07
2019-05-20T06:16:37.051Z,9.83
2019-05-20T06:19:08.337Z,9.33
2019-05-20T06:21:39.524Z,9.73
2019-05-20T06:24:11.297Z,9.73
2019-05-20T06:26:42.571Z,10.20
2019-05-20T06:29:13.497Z,11.70
2019-05-20T06:31:44.720Z,9.33
2019-05-20T06:34:15.753Z,8.50
2019-05-20T06:36:51.772Z,8.30
2019-05-20T06:39:22.659Z,8.33
2019-05-20T06:41:52.863Z,7.80
2019-05-20T06:44:24.111Z,7.50
2019-05-20T06:46:55.072Z,7.40
2019-05-20T06:49:26.224Z,7.77
2019-05-20T06:51:57.230Z,7.10
2019-05-20T06:54:28.473Z,7.60
2019-05-20T06:56:59.473Z,7.10
2019-05-20T06:59:30.810Z,6.63
2019-05-20T07:02:01.924Z,7.33
2019-05-20T07:04:33.381Z,6.87
2019-05-20T07:07:19.968Z,6.67
2019-05-20T07:09:37.329Z,6.90
2019-05-20T07:12:08.298Z,6.90
2019-05-20T07:14:38.367Z,7.00
2019-05-20T07:17:09.842Z,7.30
2019-05-20T07:19:40.830Z,7.43
2019-05-20T07:22:12.056Z,7.10
2019-05-20T07:24:43.112Z,7.23
2019-05-20T07:27:14.272Z,6.90
2019-05-20T07:29:45.168Z,7.07
2019-05-20T07:32:16.238Z,7.73
2019-05-20T07:34:47.125Z,7.33
2019-05-20T07:37:18.358Z,7.20
2019-05-20T07:39:49.272Z,7.47
2019-05-20T07:42:20.510Z,7.23
2019-05-20T07:44:51.527Z,8.07
2019-05-20T07:47:21.697Z,7.67
2019-05-20T07:49:53.216Z,7.63
2019-05-20T07:52:25.267Z,7.10
2019-05-20T07:54:58.256Z,7.27
2019-05-20T07:57:32.258Z,7.63
2019-05-20T08:00:04.634Z,8.30
2019-05-20T08:02:35.741Z,8.13
2019-05-20T08:05:10.488Z,7.67
2019-05-20T08:07:51.893Z,7.73
2019-05-20T08:10:14.690Z,7.87
2019-05-20T08:12:45.686Z,6.97
2019-05-20T08:15:18.005Z,7.37
2019-05-20T08:17:48.997Z,7.60
2019-05-20T08:20:20.037Z,7.90
2019-05-20T08:22:50.987Z,7.63
2019-05-20T08:25:21.269Z,8.73
2019-05-20T08:27:52.576Z,8.20
2019-05-20T08:30:35.437Z,8.53
2019-05-20T08:33:07.073Z,8.57
2019-05-20T08:35:38.279Z,10.00
2019-05-20T08:38:09.690Z,8.17
2019-05-20T08:40:42.245Z,8.80
2019-05-20T08:43:13.472Z,8.90
2019-05-20T08:45:44.462Z,10.07
2019-05-20T08:48:15.924Z,11.97
2019-05-20T08:50:46.809Z,11.97
2019-05-20T08:53:18.559Z,12.63
2019-05-20T08:55:49.643Z,11.37
2019-05-20T08:58:20.709Z,11.67
2019-05-20T09:00:51.728Z,18.90
2019-05-20T09:03:23.437Z,25.43
2019-05-20T09:05:54.587Z,14.20
2019-05-20T09:08:25.595Z,16.47
2019-05-20T09:10:56.698Z,12.33
2019-05-20T09:13:28.317Z,12.60
2019-05-20T09:15:59.548Z,10.67
2019-05-20T09:18:30.567Z,12.20
2019-05-20T09:21:02.040Z,15.83
2019-05-20T09:23:33.277Z,35.87
2019-05-20T09:26:04.821Z,12.47
2019-05-20T09:28:35.950Z,22.43
2019-05-20T09:31:07.448Z,11.13
2019-05-20T09:33:38.844Z,14.87
2019-05-20T09:36:09.128Z,15.43
2019-05-20T09:38:40.432Z,18.13
2019-05-20T09:41:11.449Z,20.67
2019-05-20T09:43:42.650Z,12.50
2019-05-20T09:46:13.688Z,12.57
2019-05-20T09:48:44.972Z,17.47
2019-05-20T09:51:16.151Z,15.43
2019-05-20T09:53:47.512Z,22.53
2019-05-20T09:56:18.480Z,16.73
2019-05-20T09:58:49.866Z,18.80
2019-05-20T10:01:20.850Z,15.83
2019-05-20T10:03:52.210Z,14.30
2019-05-20T10:06:23.296Z,16.47
2019-05-20T10:08:53.423Z,17.67
2019-05-20T10:11:24.692Z,21.90
2019-05-20T10:13:55.764Z,44.77
2019-05-20T10:16:27.128Z,17.33
2019-05-20T10:18:58.134Z,18.67
2019-05-20T10:21:29.222Z,17.10
2019-05-20T10:24:00.188Z,14.53
2019-05-20T10:26:31.553Z,19.53
2019-05-20T10:29:02.706Z,14.67
2019-05-20T10:31:34.042Z,19.00
2019-05-20T10:34:05.113Z,15.53
2019-05-20T10:36:36.499Z,22.13
2019-05-20T10:39:08.726Z,18.50
2019-05-20T10:41:39.086Z,19.77
2019-05-20T10:44:10.180Z,28.27
2019-05-20T10:46:41.239Z,25.00
2019-05-20T10:49:12.415Z,24.57
2019-05-20T10:51:43.406Z,16.90
2019-05-20T10:54:14.774Z,18.00
2019-05-20T10:56:46.249Z,18.80
2019-05-20T10:59:17.541Z,21.90
2019-05-20T11:01:48.549Z,25.53
2019-05-20T11:04:19.831Z,17.37
2019-05-20T11:06:50.911Z,21.30
2019-05-20T11:09:22.215Z,14.83
2019-05-20T11:11:53.149Z,19.33
2019-05-20T11:14:23.343Z,14.87
2019-05-20T11:16:54.481Z,16.57
2019-05-20T11:19:25.485Z,14.17
2019-05-20T11:21:56.855Z,14.70
2019-05-20T11:24:27.878Z,14.40
2019-05-20T11:26:59.030Z,13.33
2019-05-20T11:29:30.143Z,13.27
2019-05-20T11:32:01.474Z,16.40
2019-05-20T11:34:32.681Z,16.97
2019-05-20T11:37:07.351Z,15.50
2019-05-20T11:39:38.531Z,19.33
2019-05-20T11:42:09.869Z,19.53
2019-05-20T11:44:40.817Z,17.10
2019-05-20T11:47:12.108Z,15.63
2019-05-20T11:49:43.026Z,15.20
2019-05-20T11:52:13.264Z,14.57
2019-05-20T11:54:44.430Z,15.27
2019-05-20T11:57:15.505Z,14.73
2019-05-20T11:59:46.668Z,15.03
2019-05-20T12:02:17.670Z,13.10
2019-05-20T12:04:48.957Z,14.87
2019-05-20T12:07:20.024Z,13.67
2019-05-20T12:09:51.384Z,13.97
2019-05-20T12:12:22.499Z,14.33
2019-05-20T12:14:53.936Z,13.07
2019-05-20T12:17:24.966Z,14.80
2019-05-20T12:19:56.055Z,12.10
2019-05-20T12:22:27.147Z,12.07
2019-05-20T12:24:57.297Z,11.77
2019-05-20T12:27:28.516Z,11.23
2019-05-20T12:29:59.513Z,11.03
2019-05-20T12:32:31.117Z,10.03
2019-05-20T12:35:02.379Z,10.53
2019-05-20T12:37:33.600Z,9.70
2019-05-20T12:40:07.891Z,11.30
2019-05-20T12:42:38.882Z,10.97
2019-05-20T12:45:10.709Z,11.17
2019-05-20T12:47:41.993Z,10.90
2019-05-20T12:50:14.154Z,9.37
2019-05-20T12:52:45.237Z,9.20
2019-05-20T12:55:16.691Z,8.93
2019-05-20T13:01:02.339Z,8.90
2019-05-20T13:03:33.570Z,9.63
2019-05-20T13:06:04.702Z,9.93
2019-05-20T13:08:34.861Z,9.77
2019-05-20T13:11:06.052Z,9.90
2019-05-20T13:13:37.116Z,10.30
2019-05-20T13:16:08.402Z,9.83
2019-05-20T13:18:53.503Z,10.67
2019-05-20T13:21:12.500Z,10.47
2019-05-20T13:23:43.679Z,11.40
2019-05-20T13:26:14.890Z,12.17
2019-05-20T13:28:45.959Z,12.30
2019-05-20T13:31:17.145Z,12.67
2019-05-20T13:33:48.115Z,12.53
2019-05-20T13:36:19.181Z,12.37
2019-05-20T13:38:50.297Z,14.17
2019-05-20T13:41:20.423Z,13.60
2019-05-20T13:43:51.531Z,13.60
2019-05-20T13:46:22.578Z,13.50
2019-05-20T13:48:53.825Z,13.43
2019-05-20T13:51:24.867Z,15.07
2019-05-20T13:53:57.643Z,14.80
2019-05-20T13:56:28.653Z,15.07
2019-05-20T13:59:01.657Z,15.20
2019-05-20T14:01:33.297Z,12.90
2019-05-20T14:04:04.518Z,14.17
2019-05-20T14:06:35.515Z,13.90
2019-05-20T14:09:07.886Z,14.17
2019-05-20T14:11:39.069Z,14.67
2019-05-20T14:14:09.813Z,15.03
2019-05-20T14:16:41.030Z,14.70
2019-05-20T14:19:11.970Z,15.77
2019-05-20T14:21:43.164Z,14.67
2019-05-20T14:24:14.414Z,14.33
2019-05-20T14:26:45.835Z,14.50
2019-05-20T14:29:17.765Z,15.33
2019-05-20T14:31:49.039Z,15.80
2019-05-20T14:34:19.952Z,15.77
2019-05-20T14:36:52.976Z,17.13
2019-05-20T14:39:23.917Z,17.40
2019-05-20T14:41:55.009Z,16.77
2019-05-20T14:44:26.081Z,16.87
2019-05-20T14:46:56.232Z,17.23
2019-05-20T14:49:27.451Z,17.17
2019-05-20T14:51:58.371Z,17.03
2019-05-20T14:54:29.642Z,17.50
2019-05-20T14:57:00.562Z,17.93
2019-05-20T14:59:31.779Z,20.17
2019-05-20T15:02:02.687Z,19.77
2019-05-20T15:04:34.109Z,20.50
2019-05-20T15:07:05.210Z,21.87
2019-05-20T15:09:37.167Z,21.97
2019-05-20T15:12:08.186Z,24.40
2019-05-20T15:14:42.451Z,25.17
2019-05-20T15:17:12.380Z,27.33
2019-05-20T15:19:42.538Z,28.93
2019-05-20T15:22:13.823Z,28.83
2019-05-20T15:24:44.920Z,33.07
2019-05-20T15:27:16.112Z,37.07
2019-05-20T15:29:47.038Z,39.23
2019-05-20T15:32:18.246Z,37.83
2019-05-20T15:34:49.163Z,43.13
2019-05-20T15:37:20.287Z,41.63
2019-05-20T15:39:51.422Z,42.60
2019-05-20T15:42:22.715Z,42.63
2019-05-20T15:44:53.619Z,45.03
2019-05-20T15:47:24.829Z,43.03
2019-05-20T15:49:55.843Z,41.57
2019-05-20T15:52:28.435Z,27.70
2019-05-20T15:54:59.894Z,30.17
2019-05-20T15:57:30.136Z,31.07
2019-05-20T16:00:01.535Z,31.83
2019-05-20T16:02:33.859Z,29.60
2019-05-20T16:05:06.796Z,31.77
2019-05-20T16:07:37.799Z,28.40
2019-05-20T16:10:09.353Z,22.07
2019-05-20T16:12:40.865Z,18.40
2019-05-20T16:15:13.223Z,15.47
2019-05-20T16:17:47.888Z,11.73
2019-05-20T16:20:17.476Z,10.47
2019-05-20T16:22:48.470Z,9.33
2019-05-20T16:25:20.332Z,10.70
2019-05-20T16:27:51.737Z,9.63
2019-05-20T16:30:22.485Z,11.50
2019-05-20T16:32:53.704Z,9.93
2019-05-20T16:35:24.760Z,9.77
2019-05-20T16:37:55.906Z,8.13
2019-05-20T16:40:27.058Z,8.73
2019-05-20T16:42:58.243Z,11.97
2019-05-20T16:45:29.338Z,9.70
2019-05-20T16:48:00.723Z,8.97
2019-05-20T16:50:31.806Z,9.60
2019-05-20T16:53:03.157Z,8.73
2019-05-20T16:55:34.170Z,7.83
2019-05-20T16:58:05.384Z,8.17
2019-05-20T17:00:36.449Z,8.00
2019-05-20T17:03:06.669Z,6.93
2019-05-20T17:05:38.919Z,7.90
2019-05-20T17:08:10.001Z,7.57
2019-05-20T17:10:41.132Z,7.73
2019-05-20T17:13:12.138Z,7.57
2019-05-20T17:15:43.585Z,7.23
2019-05-20T17:18:14.536Z,7.10
2019-05-20T17:20:46.473Z,7.53
2019-05-20T17:23:17.766Z,7.20
2019-05-20T17:25:50.760Z,6.97
2019-05-20T17:28:21.771Z,7.63
2019-05-20T17:30:52.923Z,7.33
2019-05-20T17:33:24.096Z,9.50
2019-05-20T17:35:54.204Z,7.03
2019-05-20T17:38:25.415Z,7.63
2019-05-20T17:40:56.411Z,33.37
2019-05-20T17:43:27.871Z,8.53
2019-05-20T17:45:58.887Z,8.30
2019-05-20T17:48:30.122Z,8.70
2019-05-20T17:51:01.281Z,8.93
2019-05-20T17:53:32.483Z,7.73
2019-05-20T17:56:03.583Z,7.73
2019-05-20T17:58:37.335Z,7.80
2019-05-20T18:01:15.213Z,8.43
2019-05-20T18:03:40.285Z,8.07
2019-05-20T18:06:14.175Z,8.87
2019-05-20T18:08:46.016Z,8.27
2019-05-20T18:11:19.460Z,8.77
2019-05-20T18:13:50.875Z,8.90
2019-05-20T18:16:22.240Z,8.47
2019-05-20T18:18:53.298Z,8.43
2019-05-20T18:21:24.542Z,7.70
2019-05-20T18:23:55.551Z,9.43
2019-05-20T18:26:26.852Z,8.10
2019-05-20T18:28:57.833Z,8.33
2019-05-20T18:31:32.414Z,12.17
2019-05-20T18:34:02.111Z,64.07
2019-05-20T18:36:33.370Z,8.30
2019-05-20T18:39:05.934Z,8.87
2019-05-20T18:41:37.251Z,8.90
2019-05-20T18:44:08.319Z,9.17
2019-05-20T18:46:41.500Z,9.23
2019-05-20T18:49:12.805Z,8.87
2019-05-20T18:51:43.818Z,8.63
2019-05-20T18:54:15.155Z,8.17
2019-05-20T18:56:46.137Z,8.57
2019-05-20T18:59:17.383Z,8.70
2019-05-20T19:02:03.733Z,9.00
2019-05-20T19:04:21.196Z,8.63
2019-05-20T19:06:52.249Z,19.23
2019-05-20T19:09:23.602Z,22.60
2019-05-20T19:11:54.651Z,10.97
2019-05-20T19:14:25.803Z,9.33
2019-05-20T19:16:56.798Z,9.30
2019-05-20T19:19:27.130Z,9.13
2019-05-20T19:21:58.596Z,9.13
2019-05-20T19:24:29.651Z,9.60
2019-05-20T19:27:01.026Z,9.27
2019-05-20T19:29:31.933Z,8.50
2019-05-20T19:32:02.990Z,8.70
2019-05-20T19:34:33.981Z,11.47
2019-05-20T19:37:05.259Z,9.80
2019-05-20T19:39:36.257Z,9.50
2019-05-20T19:42:07.641Z,9.80
2019-05-20T19:44:38.611Z,9.13
2019-05-20T19:47:09.717Z,10.37
2019-05-20T19:49:42.627Z,10.87
2019-05-20T19:52:12.541Z,10.93
2019-05-20T19:54:46.715Z,11.13
2019-05-20T19:57:17.730Z,81.10
2019-05-20T19:59:49.025Z,21.73
2019-05-20T20:02:20.022Z,11.43
2019-05-20T20:04:54.357Z,13.53
2019-05-20T20:07:28.557Z,11.70
2019-05-20T20:09:58.414Z,12.20
2019-05-20T20:12:29.379Z,12.57
2019-05-20T20:15:00.599Z,11.73
2019-05-20T20:17:31.627Z,11.33
2019-05-20T20:20:02.881Z,12.60
2019-05-20T20:22:35.442Z,11.60
2019-05-20T20:25:06.566Z,12.23
2019-05-20T20:27:37.733Z,13.00
2019-05-20T20:30:11.993Z,12.87
2019-05-20T20:32:43.405Z,13.17
2019-05-20T20:35:14.578Z,13.07
2019-05-20T20:37:45.781Z,12.87
2019-05-20T20:40:16.912Z,13.57
2019-05-20T20:42:48.141Z,13.23
2019-05-20T20:45:19.119Z,13.80
2019-05-20T20:47:50.352Z,13.30
2019-05-20T20:50:21.462Z,11.37
2019-05-20T20:52:52.921Z,11.53
2019-05-20T20:55:23.922Z,12.27
2019-05-20T20:57:55.072Z,11.60
2019-05-20T21:00:26.044Z,11.37
2019-05-20T21:02:57.010Z,11.73
2019-05-20T21:05:28.173Z,13.83
2019-05-20T21:07:59.122Z,16.50
2019-05-20T21:10:30.276Z,22.37
2019-05-20T21:13:01.337Z,11.30
2019-05-20T21:15:32.580Z,13.13
2019-05-20T21:18:03.467Z,14.77
2019-05-20T21:20:34.694Z,10.97
2019-05-20T21:23:05.722Z,10.87
2019-05-20T21:25:36.994Z,12.37
2019-05-20T21:28:07.969Z,11.23
2019-05-20T21:30:39.236Z,10.93
2019-05-20T21:33:10.398Z,12.93
2019-05-20T21:35:40.466Z,11.60
2019-05-20T21:38:11.703Z,11.10
2019-05-20T21:40:42.678Z,10.67
2019-05-20T21:43:13.922Z,12.17
2019-05-20T21:45:44.910Z,11.83
2019-05-20T21:48:16.197Z,11.20
2019-05-20T21:50:47.132Z,21.10
2019-05-20T21:53:18.537Z,16.00
2019-05-20T21:55:49.712Z,21.40
2019-05-20T21:58:20.777Z,19.70
2019-05-20T22:00:55.376Z,26.43
2019-05-20T22:03:26.625Z,30.27
2019-05-20T22:05:57.709Z,18.50
2019-05-20T22:08:27.783Z,15.60
2019-05-20T22:10:59.041Z,12.13
2019-05-20T22:13:30.103Z,12.30
2019-05-20T22:16:01.326Z,19.80
2019-05-20T22:18:32.249Z,17.90
2019-05-20T22:21:03.428Z,12.10
2019-05-20T22:23:36.103Z,19.10
2019-05-20T22:26:07.256Z,22.73
2019-05-20T22:28:38.163Z,15.83
2019-05-20T22:31:27.855Z,15.80
2019-05-20T22:34:08.134Z,14.37
2019-05-20T22:36:39.497Z,13.40
2019-05-20T22:39:10.421Z,16.50
2019-05-20T22:41:41.722Z,13.97
2019-05-20T22:44:12.649Z,14.73
2019-05-20T22:46:42.863Z,14.10
2019-05-20T22:49:14.040Z,13.57
2019-05-20T22:51:44.946Z,13.73
2019-05-20T22:54:16.505Z,14.73
2019-05-20T22:56:47.541Z,15.03
2019-05-20T22:59:18.706Z,14.67
2019-05-20T23:01:49.776Z,15.63
2019-05-20T23:04:20.925Z,16.40
2019-05-20T23:06:52.034Z,13.83
2019-05-20T23:09:23.178Z,16.07
2019-05-20T23:11:54.115Z,15.83
2019-05-20T23:14:25.836Z,14.13
2019-05-20T23:16:56.779Z,15.13
2019-05-20T23:19:26.919Z,14.60
2019-05-20T23:21:58.137Z,15.90
2019-05-20T23:24:29.120Z,16.10
2019-05-20T23:27:00.246Z,15.43
2019-05-20T23:29:31.165Z,15.77
2019-05-20T23:32:02.266Z,15.73
2019-05-20T23:34:33.158Z,16.60
2019-05-20T23:37:04.320Z,15.67
2019-05-20T23:39:35.226Z,15.80
2019-05-20T23:42:06.581Z,15.40
2019-05-20T23:44:37.464Z,15.17
2019-05-20T23:47:08.737Z,15.70
2019-05-20T23:49:39.646Z,16.60
2019-05-20T23:52:09.767Z,15.67
2019-05-20T23:54:40.841Z,16.00
2019-05-20T23:57:11.754Z,15.07
2019-05-20T23:59:42.915Z,15.87
